Time;durP1;ratioP1;P1;durP2;ratioP2;P2;SDS_P1;SDS_P2;PMS_P1;PMS_P2;Temp;Humidity;BMP_temperature;BMP_pressure;BME280_temperature;BME280_humidity;BME280_pressure;Samples;Min_cycle;Max_cycle;Signal;HPM_P1;HPM_P2
2021/12/30 00:01:49;;;;;;;;;;;12.50;99.90;;;;;;5035618;28;19972;-61
2021/12/30 00:04:14;;;;;;;;;;;12.20;99.90;;;;;;5016394;28;19921;-60
2021/12/30 00:06:41;;;;;;;;;;;12.30;99.90;;;;;;5013742;28;19929;-67
2021/12/30 00:09:07;;;;;;;;;;;;;;;;;;5031508;28;19921;-67
2021/12/30 00:11:32;;;;;;;;;;;12.20;99.90;;;;;;5026192;28;19928;-61
2021/12/30 00:13:58;;;;;;;;;;;12.40;99.90;;;;;;5033717;28;19921;-61
2021/12/30 00:16:24;;;;;;;;;;;12.40;99.90;;;;;;5020648;28;19928;-61
2021/12/30 00:18:49;;;;;;;;;;;12.20;99.90;;;;;;5025980;28;20374;-61
2021/12/30 00:21:15;;;;;;;;;;;;;;;;;;5019357;28;19925;-61
2021/12/30 00:23:42;;;;;;;;;;;12.20;99.90;;;;;;5031904;28;19921;-61
2021/12/30 00:26:07;;;;;;;;;;;12.30;99.90;;;;;;5011789;28;19991;-67
2021/12/30 00:28:33;;;;;;;;;;;12.20;99.90;;;;;;5025619;28;19995;-67
2021/12/30 00:30:59;;;;;;;;;;;12.60;99.90;;;;;;5030887;28;19921;-67
2021/12/30 00:33:25;;;;;;;;;;;12.20;99.90;;;;;;5015982;28;19923;-68
2021/12/30 00:35:51;;;;;;;;;;;12.30;99.90;;;;;;5026917;28;19929;-67
2021/12/30 00:38:16;;;;;;;;;;;12.30;99.90;;;;;;5033502;28;19928;-67
2021/12/30 00:40:42;;;;;;;;;;;;;;;;;;5033071;28;19924;-67
2021/12/30 00:43:08;;;;;;;;;;;12.30;99.90;;;;;;5016708;28;20005;-67
2021/12/30 00:45:34;;;;;;;;;;;;;;;;;;5030163;28;20012;-67
2021/12/30 00:48:00;;;;;;;;;;;12.50;99.90;;;;;;5014281;28;19921;-61
2021/12/30 00:50:25;;;;;;;;;;;12.20;99.90;;;;;;5014253;28;19922;-61
2021/12/30 00:52:51;;;;;;;;;;;12.10;99.90;;;;;;5026127;28;19925;-61
2021/12/30 00:55:17;;;;;;;;;;;;;;;;;;5019214;28;19928;-61
2021/12/30 00:57:43;;;;;;;;;;;12.30;99.90;;;;;;5032948;28;19928;-60
2021/12/30 01:00:10;;;;;;;;;;;12.60;99.90;;;;;;5028125;28;19945;-67
2021/12/30 01:02:36;;;;;;;;;;;;;;;;;;5031448;28;20016;-68
2021/12/30 01:05:01;;;;;;;;;;;12.40;99.90;;;;;;5030288;28;19940;-60
2021/12/30 01:07:27;;;;;;;;;;;12.20;99.90;;;;;;5015585;28;19928;-61
2021/12/30 01:09:53;;;;;;;;;;;12.20;99.90;;;;;;5032722;28;20047;-61
2021/12/30 01:12:19;;;;;;;;;;;12.20;99.90;;;;;;5019690;28;19988;-60
2021/12/30 01:14:47;;;;;;;;;;;12.30;99.90;;;;;;5017771;28;19921;-61
2021/12/30 01:17:22;;;;;;;;;;;12.30;99.90;;;;;;5014266;28;19957;-61
2021/12/30 01:19:50;;;;;;;;;;;12.30;99.90;;;;;;5029378;28;19925;-61
2021/12/30 01:22:17;;;;;;;;;;;12.50;99.90;;;;;;5015683;28;20024;-61
2021/12/30 01:24:43;;;;;;;;;;;12.30;99.90;;;;;;5005543;28;19921;-61
2021/12/30 01:27:08;;;;;;;;;;;12.30;99.90;;;;;;5015159;28;19968;-61
2021/12/30 01:29:34;;;;;;;;;;;12.60;99.90;;;;;;5010627;28;19921;-61
2021/12/30 01:32:00;;;;;;;;;;;12.40;99.90;;;;;;5014137;28;19929;-61
2021/12/30 01:34:27;;;;;;;;;;;12.40;99.90;;;;;;5029782;28;19972;-68
2021/12/30 01:36:53;;;;;;;;;;;12.50;99.90;;;;;;5012925;28;20375;-67
2021/12/30 01:39:20;;;;;;;;;;;12.60;99.90;;;;;;5032796;28;20322;-67
2021/12/30 01:41:46;;;;;;;;;;;12.20;99.90;;;;;;5019962;28;19968;-68
2021/12/30 01:44:12;;;;;;;;;;;12.40;99.90;;;;;;5014242;28;19925;-67
2021/12/30 01:46:38;;;;;;;;;;;12.10;99.90;;;;;;5031919;28;20392;-68
2021/12/30 01:49:04;;;;;;;;;;;12.50;99.90;;;;;;5025858;28;19971;-61
2021/12/30 01:51:30;;;;;;;;;;;12.40;99.90;;;;;;5023568;28;19968;-62
2021/12/30 01:53:56;;;;;;;;;;;12.40;99.90;;;;;;5033019;28;19928;-60
2021/12/30 01:56:22;;;;;;;;;;;12.20;99.90;;;;;;5025105;28;20027;-67
2021/12/30 01:58:48;;;;;;;;;;;12.30;99.90;;;;;;5020406;28;20064;-62
2021/12/30 02:01:13;;;;;;;;;;;12.50;99.90;;;;;;5028295;28;19929;-61
2021/12/30 02:03:39;;;;;;;;;;;12.20;99.90;;;;;;5033659;28;20424;-62
2021/12/30 02:06:05;;;;;;;;;;;;;;;;;;5028755;28;19928;-66
2021/12/30 02:08:31;;;;;;;;;;;12.30;99.90;;;;;;5028322;28;19943;-67
2021/12/30 02:10:56;;;;;;;;;;;12.30;99.90;;;;;;5032830;28;19921;-67
2021/12/30 02:13:22;;;;;;;;;;;12.30;99.90;;;;;;5001243;28;20326;-60
2021/12/30 02:15:48;;;;;;;;;;;12.40;99.90;;;;;;5016840;28;19921;-61
2021/12/30 02:18:14;;;;;;;;;;;12.30;99.90;;;;;;5031550;28;19932;-61
2021/12/30 02:20:47;;;;;;;;;;;12.30;99.90;;;;;;5030659;28;19922;-61
2021/12/30 02:23:13;;;;;;;;;;;12.10;99.90;;;;;;5025652;28;19921;-68
2021/12/30 02:25:39;;;;;;;;;;;12.30;99.90;;;;;;5036450;28;19920;-68
2021/12/30 02:28:08;;;;;;;;;;;12.20;99.90;;;;;;5028008;28;20004;-68
2021/12/30 02:30:34;;;;;;;;;;;12.30;99.90;;;;;;5004145;28;19921;-67
2021/12/30 02:32:59;;;;;;;;;;;12.30;99.90;;;;;;5029041;28;19929;-61
2021/12/30 02:35:25;;;;;;;;;;;12.30;99.90;;;;;;5027768;28;19927;-66
2021/12/30 02:37:51;;;;;;;;;;;12.50;99.90;;;;;;5018870;28;19963;-67
2021/12/30 02:40:23;;;;;;;;;;;12.20;99.90;;;;;;5033371;28;20378;-61
2021/12/30 02:42:49;;;;;;;;;;;12.10;99.90;;;;;;5016475;28;19943;-61
2021/12/30 02:45:15;;;;;;;;;;;12.40;99.90;;;;;;5017620;28;20020;-61
2021/12/30 02:47:41;;;;;;;;;;;;;;;;;;4998520;28;19975;-64
2021/12/30 02:50:06;;;;;;;;;;;12.30;99.90;;;;;;5028793;28;20290;-61
2021/12/30 02:52:32;;;;;;;;;;;12.30;99.90;;;;;;5026130;28;19927;-61
2021/12/30 02:54:57;;;;;;;;;;;12.40;99.90;;;;;;4999666;28;20008;-61
2021/12/30 02:57:26;;;;;;;;;;;12.50;99.90;;;;;;5016503;28;19925;-60
2021/12/30 02:59:52;;;;;;;;;;;;;;;;;;5029347;28;19976;-62
2021/12/30 03:02:18;;;;;;;;;;;12.30;99.90;;;;;;5034948;28;19975;-61
2021/12/30 03:04:43;;;;;;;;;;;12.40;99.90;;;;;;5034937;28;19927;-61
2021/12/30 03:07:09;;;;;;;;;;;12.00;99.90;;;;;;5020372;28;20333;-61
2021/12/30 03:09:35;;;;;;;;;;;12.20;99.90;;;;;;5017333;28;20358;-61
2021/12/30 03:12:00;;;;;;;;;;;12.30;99.90;;;;;;5020021;28;19917;-61
2021/12/30 03:14:26;;;;;;;;;;;12.30;99.90;;;;;;5025507;28;19928;-61
2021/12/30 03:16:52;;;;;;;;;;;12.20;99.90;;;;;;5023961;28;20409;-61
2021/12/30 03:19:18;;;;;;;;;;;12.00;99.90;;;;;;5017252;28;19921;-60
2021/12/30 03:21:43;;;;;;;;;;;12.40;99.90;;;;;;5034581;28;19921;-61
2021/12/30 03:24:09;;;;;;;;;;;12.30;99.90;;;;;;5018207;28;19976;-61
2021/12/30 03:26:35;;;;;;;;;;;12.40;99.90;;;;;;5019940;28;19925;-61
2021/12/30 03:29:01;;;;;;;;;;;;;;;;;;4999113;28;19971;-68
2021/12/30 03:31:27;;;;;;;;;;;;;;;;;;5034569;28;19967;-68
2021/12/30 03:33:52;;;;;;;;;;;12.50;99.90;;;;;;5033310;28;19921;-68
2021/12/30 03:36:18;;;;;;;;;;;12.50;99.90;;;;;;5027380;28;19924;-67
2021/12/30 03:38:45;;;;;;;;;;;12.30;99.90;;;;;;5014979;28;19921;-68
2021/12/30 03:41:11;;;;;;;;;;;12.20;99.90;;;;;;5034786;28;20286;-68
2021/12/30 03:43:37;;;;;;;;;;;12.20;99.90;;;;;;5016640;28;20015;-68
2021/12/30 03:46:03;;;;;;;;;;;12.10;99.90;;;;;;5031411;28;20019;-61
2021/12/30 03:48:33;;;;;;;;;;;12.50;99.90;;;;;;5029743;28;19971;-61
2021/12/30 03:51:04;;;;;;;;;;;12.20;99.90;;;;;;5034350;28;20015;-68
2021/12/30 03:53:30;;;;;;;;;;;12.30;99.90;;;;;;5025464;28;19925;-68
2021/12/30 03:55:55;;;;;;;;;;;12.40;99.90;;;;;;5034838;28;20015;-68
2021/12/30 03:58:21;;;;;;;;;;;12.20;99.90;;;;;;5017770;28;19929;-68
2021/12/30 04:00:46;;;;;;;;;;;12.40;99.90;;;;;;5033634;28;20344;-61
2021/12/30 04:03:12;;;;;;;;;;;12.30;99.90;;;;;;5021638;28;19971;-61
2021/12/30 04:05:38;;;;;;;;;;;12.10;99.90;;;;;;5015030;28;20371;-61
2021/12/30 04:08:03;;;;;;;;;;;12.50;99.90;;;;;;5026746;28;20012;-61
2021/12/30 04:10:29;;;;;;;;;;;12.40;99.90;;;;;;5028283;28;19927;-61
2021/12/30 04:12:56;;;;;;;;;;;12.30;99.90;;;;;;5034299;28;19927;-61
2021/12/30 04:15:22;;;;;;;;;;;12.20;99.90;;;;;;5033160;28;19925;-60
2021/12/30 04:17:47;;;;;;;;;;;12.60;99.90;;;;;;5028547;28;19925;-61
2021/12/30 04:20:13;;;;;;;;;;;12.20;99.90;;;;;;5033623;28;20390;-61
2021/12/30 04:22:39;;;;;;;;;;;12.40;99.90;;;;;;5033902;28;19999;-61
2021/12/30 04:25:05;;;;;;;;;;;;;;;;;;5032770;28;19928;-61
2021/12/30 04:27:30;;;;;;;;;;;12.50;99.90;;;;;;5033300;28;19921;-61
2021/12/30 04:29:56;;;;;;;;;;;12.60;99.90;;;;;;5029491;28;19925;-61
2021/12/30 04:32:22;;;;;;;;;;;12.30;99.90;;;;;;5031759;28;19917;-61
2021/12/30 04:34:47;;;;;;;;;;;12.20;99.90;;;;;;5028449;28;20302;-61
2021/12/30 04:37:13;;;;;;;;;;;12.20;99.90;;;;;;5031201;28;19924;-62
2021/12/30 04:39:38;;;;;;;;;;;12.40;99.90;;;;;;5019519;28;20356;-62
2021/12/30 04:42:04;;;;;;;;;;;12.30;99.90;;;;;;5033434;28;20004;-62
2021/12/30 04:44:30;;;;;;;;;;;;;;;;;;5016443;28;19928;-61
2021/12/30 04:46:56;;;;;;;;;;;12.30;99.90;;;;;;5033397;28;19983;-61
2021/12/30 04:49:22;;;;;;;;;;;12.30;99.90;;;;;;5033520;28;19917;-61
2021/12/30 04:51:48;;;;;;;;;;;12.50;99.90;;;;;;5031061;28;19928;-63
2021/12/30 04:54:13;;;;;;;;;;;12.10;99.90;;;;;;5016534;28;19975;-62
2021/12/30 04:56:39;;;;;;;;;;;12.40;99.90;;;;;;5033467;28;19921;-61
2021/12/30 04:59:05;;;;;;;;;;;12.70;99.90;;;;;;5033513;28;19928;-61
2021/12/30 05:01:30;;;;;;;;;;;12.20;99.90;;;;;;5020262;28;20279;-61
2021/12/30 05:03:56;;;;;;;;;;;12.50;99.90;;;;;;5027918;28;19928;-61
2021/12/30 05:06:21;;;;;;;;;;;12.30;99.90;;;;;;5014837;28;19928;-61
2021/12/30 05:08:47;;;;;;;;;;;12.20;99.90;;;;;;5018325;28;19921;-61
2021/12/30 05:11:13;;;;;;;;;;;;;;;;;;5015410;28;20011;-65
2021/12/30 05:13:39;;;;;;;;;;;;;;;;;;5014120;28;19973;-61
2021/12/30 05:16:05;;;;;;;;;;;12.40;99.90;;;;;;5031324;28;20404;-61
2021/12/30 05:18:33;;;;;;;;;;;12.50;99.90;;;;;;5033227;28;19976;-61
2021/12/30 05:20:59;;;;;;;;;;;12.60;99.90;;;;;;5015727;28;19921;-61
2021/12/30 05:23:25;;;;;;;;;;;12.50;99.90;;;;;;5031578;28;20290;-61
2021/12/30 05:25:51;;;;;;;;;;;12.60;99.90;;;;;;5033411;28;19925;-62
2021/12/30 05:28:16;;;;;;;;;;;12.70;99.90;;;;;;5033325;28;19928;-61
2021/12/30 05:30:42;;;;;;;;;;;12.40;99.90;;;;;;5033343;28;20259;-62
2021/12/30 05:33:07;;;;;;;;;;;12.40;99.90;;;;;;5030952;28;19959;-61
2021/12/30 05:35:33;;;;;;;;;;;12.30;99.90;;;;;;5033145;28;19921;-60
2021/12/30 05:38:01;;;;;;;;;;;12.40;99.90;;;;;;5029479;28;20298;-61
2021/12/30 05:40:26;;;;;;;;;;;12.30;99.90;;;;;;5014974;28;19928;-62
2021/12/30 05:42:52;;;;;;;;;;;12.30;99.90;;;;;;5028407;28;19921;-61
2021/12/30 05:45:18;;;;;;;;;;;;;;;;;;5031476;28;20333;-62
2021/12/30 05:47:46;;;;;;;;;;;12.60;99.90;;;;;;5035120;28;20007;-61
2021/12/30 05:50:12;;;;;;;;;;;12.60;99.90;;;;;;5036060;28;20274;-61
2021/12/30 05:52:37;;;;;;;;;;;12.40;99.90;;;;;;5036911;28;19917;-61
2021/12/30 05:55:04;;;;;;;;;;;12.40;99.90;;;;;;5025485;28;20016;-61
2021/12/30 05:57:29;;;;;;;;;;;12.30;99.90;;;;;;5024886;28;20377;-61
2021/12/30 05:59:55;;;;;;;;;;;12.50;99.90;;;;;;5017490;28;19929;-61
2021/12/30 06:02:21;;;;;;;;;;;12.30;99.90;;;;;;5023727;28;19925;-60
2021/12/30 06:04:47;;;;;;;;;;;12.20;99.90;;;;;;5017452;28;20296;-61
2021/12/30 06:07:12;;;;;;;;;;;12.30;99.90;;;;;;5033475;28;19921;-61
2021/12/30 06:09:38;;;;;;;;;;;12.30;99.90;;;;;;5018329;28;20312;-68
2021/12/30 06:12:04;;;;;;;;;;;12.70;99.90;;;;;;5035099;28;20275;-69
2021/12/30 06:14:29;;;;;;;;;;;12.60;99.90;;;;;;5033814;28;20382;-69
2021/12/30 06:16:55;;;;;;;;;;;12.60;99.90;;;;;;5027815;28;19925;-69
2021/12/30 06:19:21;;;;;;;;;;;12.50;99.90;;;;;;5023303;28;19925;-60
2021/12/30 06:21:47;;;;;;;;;;;;;;;;;;5032972;28;19924;-63
2021/12/30 06:24:12;;;;;;;;;;;12.40;99.90;;;;;;5017004;28;20303;-61
2021/12/30 06:26:38;;;;;;;;;;;12.50;99.90;;;;;;5018494;28;20040;-61
2021/12/30 06:29:04;;;;;;;;;;;12.70;99.90;;;;;;5028668;28;19921;-61
2021/12/30 06:31:29;;;;;;;;;;;12.50;99.90;;;;;;5022946;28;19921;-61
2021/12/30 06:33:55;;;;;;;;;;;12.60;99.90;;;;;;5009455;28;19921;-61
2021/12/30 06:36:21;;;;;;;;;;;;;;;;;;5016544;28;19925;-66
2021/12/30 06:38:47;;;;;;;;;;;12.60;99.90;;;;;;5032307;28;19943;-60
2021/12/30 06:41:13;;;;;;;;;;;;;;;;;;5020396;28;20003;-63
2021/12/30 06:43:39;;;;;;;;;;;12.60;99.90;;;;;;5016206;28;20383;-61
2021/12/30 06:46:05;;;;;;;;;;;12.50;99.90;;;;;;5029688;28;19925;-61
2021/12/30 06:48:31;;;;;;;;;;;12.50;99.90;;;;;;5019565;28;19925;-62
2021/12/30 06:50:59;;;;;;;;;;;12.60;99.90;;;;;;5026003;28;20043;-61
2021/12/30 06:53:25;;;;;;;;;;;;;;;;;;5020998;28;19999;-61
2021/12/30 06:55:51;;;;;;;;;;;12.60;99.90;;;;;;5034200;28;19940;-61
2021/12/30 06:58:17;;;;;;;;;;;12.40;99.90;;;;;;5031860;28;20011;-60
2021/12/30 07:00:43;;;;;;;;;;;12.60;99.90;;;;;;5016285;28;19964;-61
2021/12/30 07:03:09;;;;;;;;;;;;;;;;;;5011832;28;19996;-61
2021/12/30 07:05:34;;;;;;;;;;;12.90;99.90;;;;;;5047744;28;19929;-61
2021/12/30 07:08:00;;;;;;;;;;;12.50;99.90;;;;;;5030659;28;19948;-61
2021/12/30 07:10:26;;;;;;;;;;;12.80;99.90;;;;;;5027291;28;19927;-61
2021/12/30 07:12:51;;;;;;;;;;;12.60;99.90;;;;;;5034827;28;19923;-61
2021/12/30 07:15:18;;;;;;;;;;;13.00;99.90;;;;;;5035895;28;19921;-62
2021/12/30 07:17:43;;;;;;;;;;;12.70;99.90;;;;;;5022358;28;19921;-61
2021/12/30 07:20:09;;;;;;;;;;;12.80;99.90;;;;;;5028713;28;19921;-61
2021/12/30 07:22:35;;;;;;;;;;;12.90;99.90;;;;;;5025395;28;20371;-61
2021/12/30 07:25:01;;;;;;;;;;;12.60;99.90;;;;;;5020487;28;19948;-61
2021/12/30 07:27:26;;;;;;;;;;;12.70;99.90;;;;;;5026265;28;19924;-61
2021/12/30 07:29:52;;;;;;;;;;;;;;;;;;5015762;28;19917;-62
2021/12/30 07:32:18;;;;;;;;;;;;;;;;;;5032656;28;20002;-61
2021/12/30 07:34:44;;;;;;;;;;;12.80;99.90;;;;;;5029408;28;20326;-60
2021/12/30 07:37:14;;;;;;;;;;;12.60;99.90;;;;;;5027996;28;19924;-61
2021/12/30 07:39:42;;;;;;;;;;;12.80;99.90;;;;;;5031821;28;19975;-62
2021/12/30 07:42:08;;;;;;;;;;;12.90;99.90;;;;;;5029222;28;19917;-63
2021/12/30 07:44:34;;;;;;;;;;;;;;;;;;5015322;28;19972;-62
2021/12/30 07:47:00;;;;;;;;;;;12.80;99.90;;;;;;5015437;28;19976;-63
2021/12/30 07:49:26;;;;;;;;;;;12.90;99.90;;;;;;5029171;28;20271;-65
2021/12/30 07:51:51;;;;;;;;;;;13.10;99.90;;;;;;5016721;28;19975;-64
2021/12/30 07:54:17;;;;;;;;;;;12.80;99.90;;;;;;5004815;28;19925;-61
2021/12/30 07:56:43;;;;;;;;;;;12.90;99.90;;;;;;5016403;28;20441;-69
2021/12/30 07:59:09;;;;;;;;;;;;;;;;;;5015086;28;19921;-69
2021/12/30 08:01:35;;;;;;;;;;;;;;;;;;5014912;28;19928;-68
2021/12/30 08:04:01;;;;;;;;;;;12.70;99.90;;;;;;5014368;28;20025;-61
2021/12/30 08:06:28;;;;;;;;;;;;;;;;;;5034743;28;19971;-67
2021/12/30 08:08:54;;;;;;;;;;;;;;;;;;5019221;28;19921;-61
2021/12/30 08:11:20;;;;;;;;;;;13.00;99.90;;;;;;5016172;28;20019;-61
2021/12/30 08:13:45;;;;;;;;;;;12.70;99.90;;;;;;5031383;28;20398;-61
2021/12/30 08:16:12;;;;;;;;;;;12.70;99.90;;;;;;5034696;28;20386;-61
2021/12/30 08:18:38;;;;;;;;;;;;;;;;;;4996123;28;20011;-66
2021/12/30 08:21:04;;;;;;;;;;;12.80;99.90;;;;;;5017570;28;19928;-65
2021/12/30 08:23:29;;;;;;;;;;;12.90;99.90;;;;;;5022227;28;19921;-62
2021/12/30 08:25:55;;;;;;;;;;;12.80;99.90;;;;;;5019159;28;20386;-62
2021/12/30 08:28:21;;;;;;;;;;;12.90;99.90;;;;;;5034074;28;19925;-61
2021/12/30 08:30:47;;;;;;;;;;;12.90;99.90;;;;;;5026913;28;20342;-61
2021/12/30 08:33:12;;;;;;;;;;;12.80;99.90;;;;;;5020789;28;19921;-62
2021/12/30 08:35:38;;;;;;;;;;;12.90;99.90;;;;;;5029054;28;20285;-61
2021/12/30 08:38:04;;;;;;;;;;;12.80;99.90;;;;;;5018327;28;19921;-62
2021/12/30 08:40:30;;;;;;;;;;;12.80;99.90;;;;;;5013712;28;20012;-61
2021/12/30 08:42:56;;;;;;;;;;;;;;;;;;5014630;28;19921;-61
2021/12/30 08:45:21;;;;;;;;;;;12.90;99.90;;;;;;5014114;28;19932;-61
2021/12/30 08:47:47;;;;;;;;;;;;;;;;;;5025864;28;20000;-62
2021/12/30 08:50:14;;;;;;;;;;;12.70;99.90;;;;;;5014109;28;19929;-62
2021/12/30 08:52:40;;;;;;;;;;;12.90;99.90;;;;;;5014131;28;19921;-61
2021/12/30 08:55:06;;;;;;;;;;;;;;;;;;5022447;28;19925;-61
2021/12/30 08:57:32;;;;;;;;;;;12.80;99.90;;;;;;5004681;28;19916;-62
2021/12/30 08:59:58;;;;;;;;;;;;;;;;;;5032941;28;19921;-62
2021/12/30 09:02:23;;;;;;;;;;;13.00;99.90;;;;;;5033677;28;19927;-61
2021/12/30 09:04:49;;;;;;;;;;;;;;;;;;5019099;28;19922;-63
2021/12/30 09:07:16;;;;;;;;;;;12.90;99.90;;;;;;5032769;28;19932;-62
2021/12/30 09:09:43;;;;;;;;;;;13.20;99.90;;;;;;5026483;28;19925;-67
2021/12/30 09:12:09;;;;;;;;;;;;;;;;;;5037203;28;20337;-66
2021/12/30 09:14:35;;;;;;;;;;;13.00;99.90;;;;;;5032292;28;19920;-66
2021/12/30 09:17:00;;;;;;;;;;;13.40;99.90;;;;;;5040578;28;20397;-66
2021/12/30 09:19:26;;;;;;;;;;;13.20;99.90;;;;;;5041148;28;19928;-65
2021/12/30 09:21:52;;;;;;;;;;;12.90;99.90;;;;;;5041392;28;19928;-66
2021/12/30 09:24:18;;;;;;;;;;;13.10;99.90;;;;;;5038438;28;19929;-62
2021/12/30 09:26:43;;;;;;;;;;;13.00;99.90;;;;;;5043582;28;19921;-64
2021/12/30 09:29:12;;;;;;;;;;;13.10;99.90;;;;;;5040329;28;19990;-62
2021/12/30 09:31:41;;;;;;;;;;;13.10;99.90;;;;;;5044225;28;19967;-62
2021/12/30 09:34:07;;;;;;;;;;;13.10;99.90;;;;;;5038509;28;19921;-68
2021/12/30 09:36:33;;;;;;;;;;;13.00;99.90;;;;;;5045430;28;20436;-70
2021/12/30 09:38:59;;;;;;;;;;;13.30;99.90;;;;;;5041378;28;19920;-71
2021/12/30 09:41:25;;;;;;;;;;;13.20;99.90;;;;;;5033714;28;19921;-61
2021/12/30 09:43:51;;;;;;;;;;;;;;;;;;5042123;28;19978;-62
2021/12/30 09:46:16;;;;;;;;;;;13.00;99.90;;;;;;5038837;28;19927;-61
2021/12/30 09:48:43;;;;;;;;;;;12.80;99.90;;;;;;5039079;28;19921;-69
2021/12/30 09:51:09;;;;;;;;;;;13.10;99.90;;;;;;5043755;28;19921;-69
2021/12/30 09:53:34;;;;;;;;;;;13.30;99.90;;;;;;5045102;28;20012;-70
2021/12/30 09:56:00;;;;;;;;;;;13.30;99.90;;;;;;5044275;28;19947;-66
2021/12/30 09:58:26;;;;;;;;;;;;;;;;;;5040734;28;19963;-63
2021/12/30 10:00:52;;;;;;;;;;;13.10;99.90;;;;;;5034111;28;20007;-63
2021/12/30 10:03:17;;;;;;;;;;;13.10;99.90;;;;;;5023989;28;20423;-69
2021/12/30 10:05:43;;;;;;;;;;;13.20;99.90;;;;;;5029005;28;19928;-69
2021/12/30 10:08:16;;;;;;;;;;;13.40;99.90;;;;;;5006187;28;19921;-61
2021/12/30 10:10:46;;;;;;;;;;;13.10;99.90;;;;;;5015096;28;19921;-61
2021/12/30 10:13:24;;;;;;;;;;;13.30;99.90;;;;;;4992130;28;20294;-61
2021/12/30 10:15:52;;;;;;;;;;;13.40;99.90;;;;;;4980186;28;19929;-61
2021/12/30 10:18:18;;;;;;;;;;;13.10;99.90;;;;;;4997222;28;19922;-61
2021/12/30 10:20:44;;;;;;;;;;;13.00;99.90;;;;;;4997808;28;19921;-61
2021/12/30 10:23:11;;;;;;;;;;;13.00;99.90;;;;;;5012467;28;20394;-62
2021/12/30 10:25:37;;;;;;;;;;;13.10;99.90;;;;;;5005255;28;19921;-68
2021/12/30 10:28:15;;;;;;;;;;;13.00;99.90;;;;;;4997241;28;19992;-66
2021/12/30 10:30:41;;;;;;;;;;;13.20;99.90;;;;;;5008046;28;19932;-65
2021/12/30 10:33:14;;;;;;;;;;;13.40;99.90;;;;;;4964517;28;19921;-66
2021/12/30 10:35:40;;;;;;;;;;;13.40;99.90;;;;;;4996999;28;19922;-61
2021/12/30 10:38:09;;;;;;;;;;;13.00;99.90;;;;;;4997203;28;19917;-62
2021/12/30 10:40:34;;;;;;;;;;;13.50;99.90;;;;;;4997177;28;20260;-62
2021/12/30 10:43:12;;;;;;;;;;;13.20;99.90;;;;;;4998206;28;19925;-61
2021/12/30 10:45:38;;;;;;;;;;;13.20;99.90;;;;;;4997540;28;19928;-62
2021/12/30 10:48:04;;;;;;;;;;;13.30;99.90;;;;;;4997232;28;19925;-61
2021/12/30 10:50:29;;;;;;;;;;;13.40;99.90;;;;;;4981687;28;19922;-62
2021/12/30 10:52:55;;;;;;;;;;;13.60;99.90;;;;;;5003021;28;20378;-61
2021/12/30 10:55:21;;;;;;;;;;;13.20;99.90;;;;;;5016438;28;19925;-62
2021/12/30 10:57:47;;;;;;;;;;;13.30;99.90;;;;;;5016433;28;19922;-62
2021/12/30 11:00:29;;;;;;;;;;;13.40;99.90;;;;;;5016413;28;19921;-62
2021/12/30 11:02:55;;;;;;;;;;;13.30;99.90;;;;;;5027814;28;19921;-63
2021/12/30 11:05:20;;;;;;;;;;;13.30;99.90;;;;;;5032984;28;19948;-62
2021/12/30 11:07:51;;;;;;;;;;;13.50;99.90;;;;;;5034668;28;19921;-62
2021/12/30 11:10:33;;;;;;;;;;;13.20;99.90;;;;;;5034851;28;19921;-62
2021/12/30 11:13:11;;;;;;;;;;;13.50;99.90;;;;;;5034809;28;19975;-62
2021/12/30 11:15:37;;;;;;;;;;;13.60;99.90;;;;;;5033122;28;19924;-61
2021/12/30 11:18:10;;;;;;;;;;;13.30;99.90;;;;;;5034754;28;20282;-62
2021/12/30 11:20:36;;;;;;;;;;;;;;;;;;5033947;28;19917;-62
2021/12/30 11:23:02;;;;;;;;;;;13.20;99.90;;;;;;5034414;28;20000;-62
2021/12/30 11:25:28;;;;;;;;;;;13.30;99.90;;;;;;5033121;28;19929;-61
2021/12/30 11:27:53;;;;;;;;;;;13.50;99.90;;;;;;5027062;28;19942;-62
2021/12/30 11:30:20;;;;;;;;;;;;;;;;;;5039487;28;20378;-66
2021/12/30 11:32:48;;;;;;;;;;;13.70;99.90;;;;;;5019378;28;19926;-62
2021/12/30 11:35:14;;;;;;;;;;;13.40;99.90;;;;;;5034010;28;20294;-61
2021/12/30 11:37:40;;;;;;;;;;;;;;;;;;5015616;28;19921;-61
2021/12/30 11:40:07;;;;;;;;;;;13.60;99.90;;;;;;5014737;28;19928;-62
2021/12/30 11:42:39;;;;;;;;;;;13.30;99.90;;;;;;5028457;28;19975;-66
2021/12/30 11:45:06;;;;;;;;;;;;;;;;;;5033419;28;19928;-64
2021/12/30 11:47:32;;;;;;;;;;;13.40;99.90;;;;;;5035826;28;20286;-63
2021/12/30 11:49:58;;;;;;;;;;;;;;;;;;5053903;28;20005;-65
2021/12/30 11:52:50;;;;;;;;;;;13.70;99.90;;;;;;5045658;28;19943;-65
2021/12/30 11:55:36;;;;;;;;;;;13.50;99.90;;;;;;5022578;28;19922;-61
2021/12/30 11:58:02;;;;;;;;;;;;;;;;;;5024877;28;20344;-63
2021/12/30 12:00:32;;;;;;;;;;;13.60;99.90;;;;;;5034132;28;20267;-62
2021/12/30 12:03:02;;;;;;;;;;;13.40;99.90;;;;;;4991406;28;1231342;-64
2021/12/30 12:05:42;;;;;;;;;;;13.50;99.90;;;;;;5034775;28;19982;-65
2021/12/30 12:08:11;;;;;;;;;;;13.50;99.90;;;;;;5032729;28;19921;-64
2021/12/30 12:10:38;;;;;;;;;;;13.30;99.90;;;;;;5015562;28;19921;-65
2021/12/30 12:13:04;;;;;;;;;;;;;;;;;;5029195;28;19959;-65
2021/12/30 12:15:41;;;;;;;;;;;13.80;99.90;;;;;;5034807;28;20346;-66
2021/12/30 12:18:11;;;;;;;;;;;13.80;99.90;;;;;;5033260;28;19928;-63
2021/12/30 12:20:36;;;;;;;;;;;13.70;99.90;;;;;;5012488;28;19916;-61
2021/12/30 12:23:22;;;;;;;;;;;13.70;99.90;;;;;;5034287;28;20267;-61
2021/12/30 12:25:53;;;;;;;;;;;13.50;99.90;;;;;;5034041;28;20370;-65
2021/12/30 12:28:19;;;;;;;;;;;13.70;99.90;;;;;;5016438;28;20393;-65
2021/12/30 12:30:48;;;;;;;;;;;13.80;99.90;;;;;;5031711;28;19917;-66
2021/12/30 12:33:32;;;;;;;;;;;13.50;99.90;;;;;;5016746;28;20055;-66
2021/12/30 12:35:57;;;;;;;;;;;13.50;99.90;;;;;;5034085;28;19924;-65
2021/12/30 12:38:42;;;;;;;;;;;13.70;99.90;;;;;;5034355;28;19921;-66
2021/12/30 12:41:35;;;;;;;;;;;13.70;99.90;;;;;;5031903;28;19982;-68
2021/12/30 12:44:01;;;;;;;;;;;;;;;;;;5031168;28;19925;-71
2021/12/30 12:46:37;;;;;;;;;;;13.60;99.90;;;;;;5024575;28;19984;-71
2021/12/30 12:49:06;;;;;;;;;;;13.80;99.90;;;;;;5014112;28;20436;-64
2021/12/30 12:51:31;;;;;;;;;;;13.60;99.90;;;;;;5026619;28;19928;-70
2021/12/30 12:54:05;;;;;;;;;;;13.60;99.90;;;;;;5023302;28;19971;-61
2021/12/30 12:56:32;;;;;;;;;;;13.60;99.90;;;;;;5033984;28;19925;-61
2021/12/30 12:59:01;;;;;;;;;;;13.70;99.90;;;;;;5032981;28;19921;-62
2021/12/30 13:01:27;;;;;;;;;;;13.90;99.90;;;;;;5034122;28;19928;-62
2021/12/30 13:03:55;;;;;;;;;;;13.80;99.90;;;;;;5041801;28;19920;-61
2021/12/30 13:06:25;;;;;;;;;;;13.90;99.90;;;;;;5043659;28;19924;-61
2021/12/30 13:08:50;;;;;;;;;;;13.60;99.90;;;;;;5041995;28;19935;-62
2021/12/30 13:11:16;;;;;;;;;;;;;;;;;;5043228;28;19920;-62
2021/12/30 13:13:42;;;;;;;;;;;13.60;99.90;;;;;;5042701;28;19927;-62
2021/12/30 13:16:23;;;;;;;;;;;14.00;99.90;;;;;;5042879;28;19920;-68
2021/12/30 13:19:01;;;;;;;;;;;13.80;99.90;;;;;;5044942;28;20285;-68
2021/12/30 13:21:26;;;;;;;;;;;14.10;99.90;;;;;;5016295;28;19984;-69
2021/12/30 13:23:52;;;;;;;;;;;;;;;;;;5016158;28;20335;-69
2021/12/30 13:26:18;;;;;;;;;;;14.20;99.90;;;;;;5020459;28;19921;-68
2021/12/30 13:28:50;;;;;;;;;;;13.90;99.90;;;;;;5033776;28;19975;-68
2021/12/30 13:31:17;;;;;;;;;;;;;;;;;;5028590;28;19928;-69
2021/12/30 13:33:59;;;;;;;;;;;14.00;99.90;;;;;;5033765;28;19921;-68
2021/12/30 13:36:25;;;;;;;;;;;13.80;99.90;;;;;;5030704;28;19921;-69
2021/12/30 13:38:51;;;;;;;;;;;14.10;99.90;;;;;;5032255;28;19995;-69
2021/12/30 13:41:21;;;;;;;;;;;14.10;99.90;;;;;;5033670;28;19925;-70
2021/12/30 13:43:47;;;;;;;;;;;13.90;99.90;;;;;;5027949;28;19986;-68
2021/12/30 13:46:13;;;;;;;;;;;13.90;99.90;;;;;;5044833;28;19921;-67
2021/12/30 13:48:41;;;;;;;;;;;13.90;99.90;;;;;;5050160;28;19920;-63
2021/12/30 13:51:10;;;;;;;;;;;14.20;99.90;;;;;;5046018;28;19920;-63
2021/12/30 13:53:39;;;;;;;;;;;14.00;99.90;;;;;;5037780;28;20012;-64
2021/12/30 13:56:05;;;;;;;;;;;14.20;99.90;;;;;;5026610;28;19921;-63
2021/12/30 13:58:35;;;;;;;;;;;14.30;99.90;;;;;;5039499;28;19928;-62
2021/12/30 14:01:05;;;;;;;;;;;14.00;99.90;;;;;;4998971;28;19921;-63
2021/12/30 14:03:32;;;;;;;;;;;14.00;99.90;;;;;;5032964;28;19925;-63
2021/12/30 14:06:07;;;;;;;;;;;14.10;99.90;;;;;;5033122;28;19968;-63
2021/12/30 14:08:33;;;;;;;;;;;14.30;99.90;;;;;;5001852;28;19933;-62
2021/12/30 14:11:00;;;;;;;;;;;;;;;;;;5017876;28;19921;-63
2021/12/30 14:13:26;;;;;;;;;;;;;;;;;;5049469;28;20004;-63
2021/12/30 14:15:52;;;;;;;;;;;14.30;99.90;;;;;;5056534;28;19960;-63
2021/12/30 14:18:18;;;;;;;;;;;;;;;;;;5029443;28;20274;-63
2021/12/30 14:20:44;;;;;;;;;;;14.50;99.90;;;;;;5045766;28;20395;-63
2021/12/30 14:23:10;;;;;;;;;;;14.10;99.90;;;;;;5046430;28;19925;-68
2021/12/30 14:25:44;;;;;;;;;;;14.40;99.90;;;;;;5045111;28;20388;-70
2021/12/30 14:28:17;;;;;;;;;;;14.30;99.90;;;;;;5043867;28;19979;-69
2021/12/30 14:30:43;;;;;;;;;;;14.20;99.90;;;;;;5045056;28;19956;-69
2021/12/30 14:33:16;;;;;;;;;;;14.60;99.90;;;;;;5039472;28;19953;-66
2021/12/30 14:35:41;;;;;;;;;;;14.40;99.90;;;;;;5036608;28;19971;-66